createdAt,value
2019-01-12T00:00:40.348Z,-0.70
2019-01-12T00:03:07.099Z,-0.70
2019-01-12T00:05:33.766Z,-0.70
2019-01-12T00:08:00.472Z,-0.80
2019-01-12T00:10:27.200Z,-0.80
2019-01-12T00:12:54.007Z,-0.80
2019-01-12T00:15:21.465Z,-0.70
2019-01-12T00:17:48.961Z,-0.70
2019-01-12T00:20:15.650Z,-0.80
2019-01-12T00:22:42.339Z,-0.70
2019-01-12T00:25:09.255Z,-0.60
2019-01-12T00:27:36.701Z,-0.60
2019-01-12T00:30:04.348Z,-0.70
2019-01-12T00:32:31.049Z,-0.70
2019-01-12T00:34:57.744Z,-0.70
2019-01-12T00:37:24.527Z,-0.70
2019-01-12T00:39:51.383Z,-0.70
2019-01-12T00:42:18.909Z,-0.70
2019-01-12T00:44:45.869Z,-0.70
2019-01-12T00:47:12.585Z,-0.70
2019-01-12T00:49:40.050Z,-0.80
2019-01-12T00:52:07.112Z,-0.80
2019-01-12T00:54:38.459Z,-0.80
2019-01-12T00:57:01.723Z,-0.80
2019-01-12T00:59:28.465Z,-0.80
2019-01-12T01:01:55.297Z,-0.70
2019-01-12T01:04:22.115Z,-0.80
2019-01-12T01:06:49.633Z,-0.80
2019-01-12T01:09:16.485Z,-0.80
2019-01-12T01:11:43.393Z,-0.80
2019-01-12T01:14:11.057Z,-0.90
2019-01-12T01:16:37.886Z,-0.90
2019-01-12T01:19:05.418Z,-0.80
2019-01-12T01:21:32.968Z,-0.80
2019-01-12T01:24:00.547Z,-0.90
2019-01-12T01:26:28.106Z,-0.80
2019-01-12T01:28:55.711Z,-0.80
2019-01-12T01:31:22.461Z,-0.80
2019-01-12T01:33:49.336Z,-0.80
2019-01-12T01:36:16.101Z,-0.80
2019-01-12T01:38:42.854Z,-0.70
2019-01-12T01:41:09.571Z,-0.70
2019-01-12T01:43:37.042Z,-0.80
2019-01-12T01:46:04.580Z,-0.70
2019-01-12T01:48:32.047Z,-0.70
2019-01-12T01:50:59.502Z,-0.70
2019-01-12T01:53:26.246Z,-0.80
2019-01-12T01:55:53.013Z,-0.80
2019-01-12T01:58:19.766Z,-0.70
2019-01-12T02:00:46.584Z,-0.80
2019-01-12T02:03:13.415Z,-0.80
2019-01-12T02:05:40.177Z,-0.70
2019-01-12T02:08:06.974Z,-0.80
2019-01-12T02:10:33.688Z,-0.80
2019-01-12T02:13:01.243Z,-0.80
2019-01-12T02:15:28.046Z,-0.90
2019-01-12T02:17:54.917Z,-0.80
2019-01-12T02:20:23.118Z,-0.80
2019-01-12T02:22:48.601Z,-0.80
2019-01-12T02:25:15.436Z,-0.80
2019-01-12T02:27:42.320Z,-0.80
2019-01-12T02:30:10.145Z,-0.80
2019-01-12T02:32:36.928Z,-0.90
2019-01-12T02:35:04.223Z,-1.00
2019-01-12T02:37:30.951Z,-1.00
2019-01-12T02:39:58.381Z,-1.00
2019-01-12T02:42:25.041Z,-1.00
2019-01-12T02:44:52.497Z,-0.90
2019-01-12T02:47:20.006Z,-1.00
2019-01-12T02:49:46.902Z,-1.00
2019-01-12T02:52:13.724Z,-0.90
2019-01-12T02:54:40.433Z,-0.90
2019-01-12T02:57:07.993Z,-0.90
2019-01-12T02:59:34.751Z,-0.90
2019-01-12T03:02:02.316Z,-0.90
2019-01-12T03:04:29.150Z,-1.00
2019-01-12T03:06:55.980Z,-0.90
2019-01-12T03:09:22.781Z,-0.80
2019-01-12T03:11:49.506Z,-0.90
2019-01-12T03:14:17.144Z,-0.90
2019-01-12T03:16:43.880Z,-0.90
2019-01-12T03:19:10.792Z,-1.00
2019-01-12T03:21:37.619Z,-1.10
2019-01-12T03:24:04.542Z,-1.10
2019-01-12T03:26:32.021Z,-1.00
2019-01-12T03:28:58.792Z,-1.10
2019-01-12T03:31:25.480Z,-0.90
2019-01-12T03:33:53.006Z,-1.00
2019-01-12T03:36:19.776Z,-1.00
2019-01-12T03:38:46.468Z,-1.10
2019-01-12T03:41:13.152Z,-1.10
2019-01-12T03:43:39.915Z,-1.10
2019-01-12T03:46:06.653Z,-1.10
2019-01-12T03:48:34.292Z,-1.20
2019-01-12T03:51:00.986Z,-1.30
2019-01-12T03:53:27.667Z,-1.30
2019-01-12T03:55:55.180Z,-1.30
2019-01-12T03:58:21.935Z,-1.30
2019-01-12T04:00:48.664Z,-1.40
2019-01-12T04:03:15.369Z,-1.40
2019-01-12T04:05:42.780Z,-1.50
2019-01-12T04:08:10.250Z,-1.50
2019-01-12T04:10:37.717Z,-1.50
2019-01-12T04:13:04.520Z,-1.60
2019-01-12T04:15:31.318Z,-1.60
2019-01-12T04:17:58.711Z,-1.60
2019-01-12T04:20:25.384Z,-1.60
2019-01-12T04:22:52.139Z,-1.70
2019-01-12T04:25:19.558Z,-1.70
2019-01-12T04:27:46.285Z,-1.70
2019-01-12T04:30:13.087Z,-1.70
2019-01-12T04:32:40.581Z,-1.80
2019-01-12T04:35:07.390Z,-1.80
2019-01-12T04:37:34.847Z,-1.90
2019-01-12T04:40:02.336Z,-1.90
2019-01-12T04:42:29.043Z,-1.90
2019-01-12T04:44:56.503Z,-2.00
2019-01-12T04:47:23.946Z,-1.90
2019-01-12T04:49:50.687Z,-2.00
2019-01-12T04:52:17.409Z,-2.00
2019-01-12T04:54:44.102Z,-2.00
2019-01-12T04:57:10.852Z,-2.00
2019-01-12T04:59:37.693Z,-2.00
2019-01-12T05:02:04.456Z,-2.10
2019-01-12T05:04:31.169Z,-2.10
2019-01-12T05:06:57.884Z,-2.10
2019-01-12T05:09:25.307Z,-2.10
2019-01-12T05:11:52.038Z,-2.20
2019-01-12T05:14:18.747Z,-2.20
2019-01-12T05:16:45.428Z,-2.10
2019-01-12T05:19:12.268Z,-2.10
2019-01-12T05:21:38.979Z,-2.20
2019-01-12T05:24:05.668Z,-2.10
2019-01-12T05:26:33.155Z,-2.20
2019-01-12T05:29:00.580Z,-2.20
2019-01-12T05:31:27.250Z,-2.20
2019-01-12T05:33:54.776Z,-2.20
2019-01-12T05:36:21.457Z,-2.30
2019-01-12T05:38:48.129Z,-2.20
2019-01-12T05:41:14.845Z,-2.30
2019-01-12T05:43:41.509Z,-2.30
2019-01-12T05:46:08.259Z,-2.30
2019-01-12T05:48:35.018Z,-2.30
2019-01-12T05:51:01.683Z,-2.30
2019-01-12T05:53:29.116Z,-2.40
2019-01-12T05:55:58.037Z,-2.50
2019-01-12T05:58:22.613Z,-2.50
2019-01-12T06:00:49.366Z,-2.50
2019-01-12T06:03:16.063Z,-2.40
2019-01-12T06:05:42.790Z,-2.50
2019-01-12T06:08:09.536Z,-2.50
2019-01-12T06:10:36.239Z,-2.50
2019-01-12T06:13:02.995Z,-2.50
2019-01-12T06:15:29.721Z,-2.50
2019-01-12T06:17:56.403Z,-2.50
2019-01-12T06:20:23.101Z,-2.50
2019-01-12T06:22:49.838Z,-2.60
2019-01-12T06:25:16.538Z,-2.60
2019-01-12T06:27:43.993Z,-2.70
2019-01-12T06:30:10.762Z,-2.70
2019-01-12T06:32:38.259Z,-2.70
2019-01-12T06:35:05.054Z,-2.70
2019-01-12T06:37:32.515Z,-2.70
2019-01-12T06:39:59.967Z,-2.70
2019-01-12T06:42:27.394Z,-2.60
2019-01-12T06:44:54.257Z,-2.70
2019-01-12T06:47:21.672Z,-2.70
2019-01-12T06:49:48.381Z,-2.70
2019-01-12T06:52:15.066Z,-2.70
2019-01-12T06:54:41.754Z,-2.70
2019-01-12T06:57:08.520Z,-2.70
2019-01-12T06:59:35.225Z,-2.70
2019-01-12T07:02:01.976Z,-2.80
2019-01-12T07:04:28.754Z,-2.70
2019-01-12T07:06:55.424Z,-2.80
2019-01-12T07:09:22.114Z,-2.80
2019-01-12T07:11:48.824Z,-2.70
2019-01-12T07:14:16.278Z,-2.70
2019-01-12T07:16:43.753Z,-2.70
2019-01-12T07:19:10.482Z,-2.80
2019-01-12T07:21:37.200Z,-2.70
2019-01-12T07:24:03.964Z,-2.80
2019-01-12T07:26:31.501Z,-2.80
2019-01-12T07:28:58.939Z,-2.90
2019-01-12T07:31:25.632Z,-2.90
2019-01-12T07:33:52.336Z,-2.90
2019-01-12T07:36:19.046Z,-2.90
2019-01-12T07:38:45.730Z,-2.90
2019-01-12T07:41:13.214Z,-2.90
2019-01-12T07:43:39.914Z,-2.90
2019-01-12T07:46:07.405Z,-2.80
2019-01-12T07:48:34.150Z,-2.90
2019-01-12T07:51:00.942Z,-3.00
2019-01-12T07:53:27.715Z,-2.90
2019-01-12T07:55:55.461Z,-2.90
2019-01-12T07:58:22.918Z,-2.90
2019-01-12T08:00:49.649Z,-3.00
2019-01-12T08:03:16.437Z,-2.90
2019-01-12T08:05:43.151Z,-3.00
2019-01-12T08:08:10.610Z,-3.10
2019-01-12T08:10:38.098Z,-3.10
2019-01-12T08:13:04.828Z,-3.20
2019-01-12T08:15:31.873Z,-3.10
2019-01-12T08:17:58.686Z,-3.10
2019-01-12T08:20:25.371Z,-3.00
2019-01-12T08:22:53.622Z,-3.00
2019-01-12T08:25:18.893Z,-3.00
2019-01-12T08:27:45.563Z,-3.00
2019-01-12T08:30:13.312Z,-3.00
2019-01-12T08:32:40.002Z,-3.00
2019-01-12T08:35:06.748Z,-3.10
2019-01-12T08:37:33.572Z,-3.10
2019-01-12T08:40:00.303Z,-3.10
2019-01-12T08:42:27.230Z,-3.00
2019-01-12T08:44:54.698Z,-3.00
2019-01-12T08:47:21.390Z,-3.00
2019-01-12T08:49:48.115Z,-2.90
2019-01-12T08:52:14.858Z,-2.90
2019-01-12T08:54:41.589Z,-2.90
2019-01-12T08:57:08.318Z,-2.90
2019-01-12T08:59:35.042Z,-2.90
2019-01-12T09:02:01.764Z,-3.00
2019-01-12T09:04:28.513Z,-2.90
2019-01-12T09:06:55.984Z,-2.80
2019-01-12T09:09:22.672Z,-2.80
2019-01-12T09:11:49.438Z,-2.80
2019-01-12T09:14:16.109Z,-2.80
2019-01-12T09:16:42.812Z,-2.80
2019-01-12T09:19:09.569Z,-2.80
2019-01-12T09:21:37.026Z,-2.80
2019-01-12T09:24:04.451Z,-2.70
2019-01-12T09:26:31.262Z,-2.70
2019-01-12T09:28:57.999Z,-2.60
2019-01-12T09:31:24.672Z,-2.60
2019-01-12T09:33:51.404Z,-2.50
2019-01-12T09:36:19.759Z,-2.50
2019-01-12T09:38:46.522Z,-2.50
2019-01-12T09:41:13.327Z,-2.50
2019-01-12T09:43:39.981Z,-2.50
2019-01-12T09:46:06.801Z,-2.50
2019-01-12T09:48:33.581Z,-2.50
2019-01-12T09:51:00.327Z,-2.60
2019-01-12T09:53:27.824Z,-2.40
2019-01-12T09:55:55.369Z,-2.30
2019-01-12T09:58:22.165Z,-2.40
2019-01-12T10:00:48.915Z,-2.30
2019-01-12T10:03:15.746Z,-2.10
2019-01-12T10:05:42.559Z,-2.00
2019-01-12T10:08:09.394Z,-1.90
2019-01-12T10:10:36.895Z,-1.80
2019-01-12T10:13:03.606Z,-1.80
2019-01-12T10:15:30.269Z,-1.80
2019-01-12T10:17:57.030Z,-1.80
2019-01-12T10:20:23.755Z,-1.70
2019-01-12T10:22:50.523Z,-1.60
2019-01-12T10:25:17.280Z,-1.70
2019-01-12T10:27:44.788Z,-1.50
2019-01-12T10:30:14.342Z,-1.60
2019-01-12T10:32:41.123Z,-1.50
2019-01-12T10:35:07.924Z,-1.50
2019-01-12T10:37:34.665Z,-1.40
2019-01-12T10:40:02.190Z,-1.30
2019-01-12T10:42:28.913Z,-1.30
2019-01-12T10:44:56.500Z,-1.10
2019-01-12T10:47:23.214Z,-1.20
2019-01-12T10:49:49.888Z,-1.10
2019-01-12T10:52:16.633Z,-1.10
2019-01-12T10:54:43.312Z,-1.10
2019-01-12T10:57:10.066Z,-1.00
2019-01-12T10:59:36.804Z,-1.00
2019-01-12T11:02:03.563Z,-1.00
2019-01-12T11:04:30.271Z,-0.90
2019-01-12T11:06:57.006Z,-1.00
2019-01-12T11:09:24.451Z,-0.80
2019-01-12T11:11:51.209Z,-0.90
2019-01-12T11:14:18.740Z,-0.80
2019-01-12T11:16:45.563Z,-0.80
2019-01-12T11:19:13.078Z,-0.70
2019-01-12T11:21:39.920Z,-0.70
2019-01-12T11:24:06.635Z,-0.70
2019-01-12T11:26:34.064Z,-0.70
2019-01-12T11:29:00.845Z,-0.70
2019-01-12T11:31:27.592Z,-0.70
2019-01-12T11:33:54.279Z,-0.70
2019-01-12T11:36:21.005Z,-0.70
2019-01-12T11:38:47.720Z,-0.80
2019-01-12T11:41:14.436Z,-0.80
2019-01-12T11:43:41.165Z,-0.80
2019-01-12T11:46:08.645Z,-0.80
2019-01-12T11:48:35.401Z,-0.80
2019-01-12T11:51:04.702Z,-0.80
2019-01-12T11:53:31.491Z,-0.80
2019-01-12T11:55:58.329Z,-0.80
2019-01-12T11:58:25.229Z,-0.90
2019-01-12T12:00:52.792Z,-0.80
2019-01-12T12:03:19.602Z,-0.80
2019-01-12T12:05:47.087Z,-0.70
2019-01-12T12:08:13.817Z,-0.80
2019-01-12T12:10:41.302Z,-0.70
2019-01-12T12:13:08.038Z,-0.70
2019-01-12T12:15:34.774Z,-0.70
2019-01-12T12:18:01.503Z,-0.70
2019-01-12T12:20:28.180Z,-0.70
2019-01-12T12:22:55.671Z,-0.70
2019-01-12T12:25:22.424Z,-0.80
2019-01-12T12:27:49.129Z,-0.80
2019-01-12T12:30:17.655Z,-0.90
2019-01-12T12:32:44.389Z,-0.90
2019-01-12T12:35:11.843Z,-1.10
2019-01-12T12:37:38.684Z,-1.10
2019-01-12T12:40:06.184Z,-1.30
2019-01-12T12:42:32.961Z,-1.30
2019-01-12T12:44:59.787Z,-1.30
2019-01-12T12:47:26.596Z,-1.50
2019-01-12T12:49:53.338Z,-1.50
2019-01-12T12:52:20.155Z,-1.50
2019-01-12T12:54:47.596Z,-1.60
2019-01-12T12:57:15.017Z,-1.70
2019-01-12T12:59:41.739Z,-1.60
2019-01-12T13:02:08.625Z,-1.70
2019-01-12T13:04:35.310Z,-1.80
2019-01-12T13:07:02.036Z,-1.80
2019-01-12T13:09:28.806Z,-1.80
2019-01-12T13:11:55.458Z,-1.70
2019-01-12T13:14:22.180Z,-1.70
2019-01-12T13:16:48.923Z,-1.70
2019-01-12T13:19:15.634Z,-1.80
2019-01-12T13:21:43.119Z,-1.80
2019-01-12T13:24:09.880Z,-1.80
2019-01-12T13:26:36.570Z,-1.70
2019-01-12T13:29:04.131Z,-1.90
2019-01-12T13:31:30.981Z,-1.90
2019-01-12T13:33:57.668Z,-1.80
2019-01-12T13:36:24.359Z,-1.90
2019-01-12T13:38:51.159Z,-1.70
2019-01-12T13:41:17.999Z,-1.80
2019-01-12T13:43:44.772Z,-1.80
2019-01-12T13:46:11.544Z,-1.80
2019-01-12T13:48:38.378Z,-1.70
2019-01-12T13:51:05.325Z,-1.70
2019-01-12T13:53:32.195Z,-1.70
2019-01-12T13:55:58.927Z,-1.70
2019-01-12T13:58:25.681Z,-1.70
2019-01-12T14:00:52.467Z,-1.70
2019-01-12T14:03:19.950Z,-1.80
2019-01-12T14:05:46.778Z,-1.80
2019-01-12T14:08:13.516Z,-1.90
2019-01-12T14:10:40.319Z,-1.90
2019-01-12T14:13:07.116Z,-2.00
2019-01-12T14:15:33.886Z,-1.90
2019-01-12T14:18:00.598Z,-2.00
2019-01-12T14:20:28.221Z,-2.00
2019-01-12T14:22:55.746Z,-2.20
2019-01-12T14:25:22.483Z,-2.20
2019-01-12T14:27:54.271Z,-2.30
2019-01-12T14:30:17.801Z,-2.30
2019-01-12T14:32:46.663Z,-2.40
2019-01-12T14:35:14.228Z,-2.40
2019-01-12T14:37:41.583Z,-2.40
2019-01-12T14:40:08.571Z,-2.50
2019-01-12T14:42:35.520Z,-2.60
2019-01-12T14:45:02.320Z,-2.70
2019-01-12T14:47:29.117Z,-2.70
2019-01-12T14:49:56.618Z,-2.70
2019-01-12T14:52:23.325Z,-2.80
2019-01-12T14:54:50.874Z,-2.80
2019-01-12T14:57:17.578Z,-2.90
2019-01-12T14:59:44.377Z,-2.80
2019-01-12T15:02:11.238Z,-2.90
2019-01-12T15:04:38.071Z,-3.00
2019-01-12T15:07:04.874Z,-3.00
2019-01-12T15:09:32.537Z,-3.00
2019-01-12T15:11:59.346Z,-3.10
2019-01-12T15:14:27.150Z,-3.10
2019-01-12T15:16:54.227Z,-3.00
2019-01-12T15:19:20.956Z,-3.00
2019-01-12T15:21:48.471Z,-3.00
2019-01-12T15:24:16.077Z,-3.10
2019-01-12T15:26:43.567Z,-3.10
2019-01-12T15:29:10.343Z,-3.20
2019-01-12T15:31:37.061Z,-3.10
2019-01-12T15:34:03.865Z,-3.20
2019-01-12T15:36:30.691Z,-3.20
2019-01-12T15:38:57.403Z,-3.20
2019-01-12T15:41:24.998Z,-3.20
2019-01-12T15:43:52.506Z,-3.10
2019-01-12T15:46:19.275Z,-3.20
2019-01-12T15:48:45.963Z,-3.10
2019-01-12T15:51:12.733Z,-3.20
2019-01-12T15:53:39.462Z,-3.10
2019-01-12T15:56:06.201Z,-3.10
2019-01-12T15:58:32.876Z,-3.10
2019-01-12T16:00:59.575Z,-3.10
2019-01-12T16:03:26.345Z,-3.10
2019-01-12T16:05:53.048Z,-3.20
2019-01-12T16:08:19.750Z,-3.10
2019-01-12T16:10:46.485Z,-3.10
2019-01-12T16:13:13.219Z,-3.10
2019-01-12T16:15:39.947Z,-3.10
2019-01-12T16:18:06.656Z,-3.00
2019-01-12T16:20:33.436Z,-3.00
2019-01-12T16:23:00.192Z,-3.00
2019-01-12T16:25:27.638Z,-3.00
2019-01-12T16:27:54.347Z,-3.00
2019-01-12T16:30:21.108Z,-3.00
2019-01-12T16:32:47.870Z,-2.90
2019-01-12T16:35:15.376Z,-2.90
2019-01-12T16:37:42.282Z,-2.90
2019-01-12T16:40:14.629Z,-2.80
2019-01-12T16:42:41.347Z,-2.80
2019-01-12T16:45:08.142Z,-2.80
2019-01-12T16:47:34.911Z,-2.80
2019-01-12T16:50:01.633Z,-2.80
2019-01-12T16:52:29.137Z,-2.80
2019-01-12T16:54:55.803Z,-2.80
2019-01-12T16:57:22.515Z,-2.70
2019-01-12T16:59:49.255Z,-2.70
2019-01-12T17:02:15.950Z,-2.70
2019-01-12T17:04:43.496Z,-2.60
2019-01-12T17:07:10.933Z,-2.60
2019-01-12T17:09:37.629Z,-2.60
2019-01-12T17:12:04.340Z,-2.60
2019-01-12T17:14:31.197Z,-2.60
2019-01-12T17:16:57.860Z,-2.70
2019-01-12T17:21:55.451Z,-2.60
2019-01-12T17:24:22.140Z,-2.60
2019-01-12T17:26:48.835Z,-2.50
2019-01-12T17:29:17.944Z,-2.50
2019-01-12T17:31:42.423Z,-2.50
2019-01-12T17:34:09.176Z,-2.60
2019-01-12T17:36:35.857Z,-2.60
2019-01-12T17:39:02.721Z,-2.50
2019-01-12T17:41:29.406Z,-2.60
2019-01-12T17:43:57.103Z,-2.50
2019-01-12T17:46:23.857Z,-2.50
2019-01-12T17:48:50.734Z,-2.60
2019-01-12T17:51:17.429Z,-2.60
2019-01-12T17:53:44.180Z,-2.60
2019-01-12T17:56:10.922Z,-2.60
2019-01-12T17:58:44.249Z,-2.70
2019-01-12T18:01:04.501Z,-2.60
2019-01-12T18:03:31.194Z,-2.60
2019-01-12T18:05:57.880Z,-2.60
2019-01-12T18:08:24.672Z,-2.60
2019-01-12T18:10:51.353Z,-2.60
2019-01-12T18:13:18.061Z,-2.60
2019-01-12T18:15:44.876Z,-2.60
2019-01-12T18:18:11.562Z,-2.60
2019-01-12T18:20:39.133Z,-2.60
2019-01-12T18:23:05.889Z,-2.60
2019-01-12T18:25:32.840Z,-2.60
2019-01-12T18:27:59.688Z,-2.60
2019-01-12T18:30:26.440Z,-2.60
2019-01-12T18:32:53.152Z,-2.60
2019-01-12T18:35:19.969Z,-2.60
2019-01-12T18:37:46.742Z,-2.70
2019-01-12T18:40:13.524Z,-2.70
2019-01-12T18:42:40.306Z,-2.70
2019-01-12T18:45:07.030Z,-2.70
2019-01-12T18:47:34.457Z,-2.70
2019-01-12T18:50:01.356Z,-2.70
2019-01-12T18:52:28.172Z,-2.70
2019-01-12T18:54:55.603Z,-2.70
2019-01-12T18:57:22.420Z,-2.70
2019-01-12T18:59:49.161Z,-2.70
2019-01-12T19:02:15.934Z,-2.70
2019-01-12T19:04:43.081Z,-2.70
2019-01-12T19:07:09.872Z,-2.70
2019-01-12T19:09:38.284Z,-2.70
2019-01-12T19:12:03.804Z,-2.70
2019-01-12T19:14:30.654Z,-2.70
2019-01-12T19:16:57.484Z,-2.70
2019-01-12T19:19:24.492Z,-2.70
2019-01-12T19:21:51.308Z,-2.80
2019-01-12T19:24:18.213Z,-2.70
2019-01-12T19:26:45.295Z,-2.70
2019-01-12T19:29:12.991Z,-2.80
2019-01-12T19:31:40.466Z,-2.80
2019-01-12T19:34:07.542Z,-2.80
2019-01-12T19:36:34.336Z,-2.70
2019-01-12T19:39:01.270Z,-2.70
2019-01-12T19:41:28.035Z,-2.70
2019-01-12T19:43:55.059Z,-2.70
2019-01-12T19:46:22.191Z,-2.70
2019-01-12T19:48:49.719Z,-2.60
2019-01-12T19:51:16.614Z,-2.60
2019-01-12T19:53:43.486Z,-2.60
2019-01-12T19:56:10.440Z,-2.60
2019-01-12T19:58:38.411Z,-2.60
2019-01-12T20:01:06.139Z,-2.50
2019-01-12T20:03:32.891Z,-2.60
2019-01-12T20:05:59.728Z,-2.50
2019-01-12T20:08:26.518Z,-2.60
2019-01-12T20:10:53.230Z,-2.50
2019-01-12T20:13:19.880Z,-2.50
2019-01-12T20:15:46.711Z,-2.50
2019-01-12T20:18:14.188Z,-2.50
2019-01-12T20:20:40.870Z,-2.50
2019-01-12T20:23:07.651Z,-2.50
2019-01-12T20:25:34.386Z,-2.40
2019-01-12T20:28:01.079Z,-2.50
2019-01-12T20:30:30.609Z,-2.40
2019-01-12T20:39:20.504Z,-2.40
2019-01-12T20:42:21.753Z,-2.40
2019-01-12T20:45:01.537Z,-2.40
2019-01-12T20:47:38.327Z,-2.40
2019-01-12T20:50:05.878Z,-2.50
2019-01-12T20:52:46.344Z,-2.50
2019-01-12T20:55:16.033Z,-2.50
2019-01-12T21:00:57.293Z,-2.50
2019-01-12T21:03:39.980Z,-2.50
2019-01-12T21:06:16.603Z,-2.60
2019-01-12T21:08:48.041Z,-2.70
2019-01-12T21:11:26.544Z,-2.70
2019-01-12T21:14:05.856Z,-2.70
2019-01-12T21:16:32.605Z,-2.70
2019-01-12T21:19:00.090Z,-2.80
2019-01-12T21:21:26.943Z,-2.80
2019-01-12T21:23:53.653Z,-2.80
2019-01-12T21:26:21.168Z,-2.90
2019-01-12T21:28:47.839Z,-2.90
2019-01-12T21:31:14.588Z,-2.90
2019-01-12T21:33:41.270Z,-2.90
2019-01-12T21:36:08.746Z,-3.00
2019-01-12T21:38:35.444Z,-3.00
2019-01-12T21:41:02.292Z,-3.00
2019-01-12T21:43:29.060Z,-3.10
2019-01-12T21:45:55.837Z,-3.10
2019-01-12T21:48:22.564Z,-3.20
2019-01-12T21:50:49.337Z,-3.20
2019-01-12T21:53:16.039Z,-3.20
2019-01-12T21:55:42.773Z,-3.20
2019-01-12T21:58:10.266Z,-3.30
2019-01-12T22:00:37.006Z,-3.40
2019-01-12T22:03:03.724Z,-3.30
2019-01-12T22:05:30.484Z,-3.40
2019-01-12T22:07:57.236Z,-3.40
2019-01-12T22:10:23.959Z,-3.40
2019-01-12T22:12:50.753Z,-3.50
2019-01-12T22:15:18.225Z,-3.50
2019-01-12T22:17:44.926Z,-3.50
2019-01-12T22:20:13.615Z,-3.60
2019-01-12T22:22:41.107Z,-3.60
2019-01-12T22:25:07.890Z,-3.60
2019-01-12T22:27:34.725Z,-3.60
2019-01-12T22:30:01.585Z,-3.60
2019-01-12T22:32:28.597Z,-3.60
2019-01-12T22:34:55.373Z,-3.60
2019-01-12T22:37:22.162Z,-3.60
2019-01-12T22:39:49.733Z,-3.60
2019-01-12T22:42:17.048Z,-3.60
2019-01-12T22:44:46.842Z,-3.60
2019-01-12T22:47:13.849Z,-3.50
2019-01-12T22:49:40.601Z,-3.60
2019-01-12T22:52:07.342Z,-3.60
2019-01-12T22:54:34.111Z,-3.60
2019-01-12T22:57:01.552Z,-3.60
2019-01-12T22:59:28.636Z,-3.60
2019-01-12T23:01:56.271Z,-3.60
2019-01-12T23:04:22.986Z,-3.60
2019-01-12T23:06:49.751Z,-3.70
2019-01-12T23:09:16.488Z,-3.60
2019-01-12T23:11:44.103Z,-3.60
2019-01-12T23:14:11.268Z,-3.60
2019-01-12T23:16:38.120Z,-3.60
2019-01-12T23:19:05.060Z,-3.60
2019-01-12T23:21:33.404Z,-3.50
2019-01-12T23:24:00.102Z,-3.50
2019-01-12T23:26:27.481Z,-3.50
2019-01-12T23:28:54.285Z,-3.60
2019-01-12T23:31:21.073Z,-3.60
2019-01-12T23:33:48.136Z,-3.50
2019-01-12T23:36:15.647Z,-3.50
2019-01-12T23:38:42.456Z,-3.50
2019-01-12T23:41:09.688Z,-3.50
2019-01-12T23:43:38.166Z,-3.40
2019-01-12T23:46:05.040Z,-3.40
2019-01-12T23:48:31.879Z,-3.40
2019-01-12T23:50:59.101Z,-3.50
2019-01-12T23:53:25.826Z,-3.50
2019-01-12T23:55:52.735Z,-3.50
2019-01-12T23:58:19.547Z,-3.50
